Apellis — 3FJT2 — position and weather

sailwx.info

Track history (hours):
 
Tides and Currents Weather Stations Pressure Air Temp Water Temp Dewpoint Dewpoint Depression Visibility Wind Speed Wind Dir Waves Ship Positions

Apellis

Last reported at 2014-May-05 09:12 UTC. Time now 2014-Jul-24 12:19 UTC.
Position N 31°50' W 011°04'.
Warning: this ship's position is months out of date.

Length 178 m; draft 9.8 m.

Type: Cargo ship. MMSI: 353847000.

Date/timePositionNaut miles runAvg speedWind from/ knotsBaromVisibWave heightAir tempDewpointWater temp
2014-May-05 09:12N 31°50' W 011°04'1313.3
2014-May-05 08:15N 32°01' W 010°57'4913.1
2014-May-05 04:31N 32°44' W 010°30'1512.9
2014-May-05 03:19N 32°58' W 010°21'1012.9
2014-May-05 02:31N 33°07' W 010°15'19412.6
2014-May-04 11:11N 35°11' W 007°16'812.7
2014-May-04 10:34N 35°16' W 007°08'1712.6
2014-May-04 09:13N 35°26' W 006°51'6912.1
2014-May-04 03:33N 35°58' W 005°37'1111.3
2014-May-04 02:34N 36°01' W 005°23'1010.2
2014-May-04 01:33N 36°03' W 005°11'  
2014-May-01 02:11N 36°52' E 012°53'812.5
2014-May-01 01:33N 36°51' E 013°03'1712.4
2014-May-01 00:13N 36°46' E 013°23'812.2
2014-Apr-30 23:32N 36°43' E 013°33'1512.6
2014-Apr-30 22:19N 36°39' E 013°51'1013.0
2014-Apr-30 21:33N 36°35' E 014°03'1313.0
2014-Apr-30 20:33N 36°32' E 014°18'1312.5
2014-Apr-30 19:32N 36°28' E 014°33'1312.3
2014-Apr-30 18:30N 36°28' E 014°49'43511.7
2014-Apr-29 05:23N 36°41' E 023°51'1112.2
2014-Apr-29 04:31N 36°50' E 023°59'1212.2
2014-Apr-29 03:30N 37°01' E 024°04'2512.4
2014-Apr-29 01:28N 37°25' E 024°15'1112.5
2014-Apr-29 00:33N 37°34' E 024°24'1412.5
2014-Apr-28 23:25N 37°47' E 024°32'12712.3
2014-Apr-28 13:07N 39°42' E 025°41'712.1
2014-Apr-28 12:31N 39°48' E 025°45'5810.8
2014-Apr-28 07:08N 40°25' E 026°43'910.8
2014-Apr-28 06:20N 40°29' E 026°53'131 6.0
2014-Apr-27 08:33N 41°28' E 029°28'  
Track history (hours):
 
Tides and Currents Weather Stations Pressure Air Temp Water Temp Dewpoint Dewpoint Depression Visibility Wind Speed Wind Dir Waves Ship Positions

Apellis

Last reported at 2014-May-05 09:12 UTC. Time now 2014-Jul-24 12:19 UTC.
Position N 31°50' W 011°04'.
Warning: this ship's position is months out of date.

Length 178 m; draft 9.8 m.

Type: Cargo ship. MMSI: 353847000.

Date/timePositionNaut miles runAvg speedWind from/ knotsBaromVisibWave heightAir tempDewpointWater temp
2014-May-05 09:12N 31°50' W 011°04'1313.3
2014-May-05 08:15N 32°01' W 010°57'4913.1
2014-May-05 04:31N 32°44' W 010°30'1512.9
2014-May-05 03:19N 32°58' W 010°21'1012.9
2014-May-05 02:31N 33°07' W 010°15'19412.6
2014-May-04 11:11N 35°11' W 007°16'812.7
2014-May-04 10:34N 35°16' W 007°08'1712.6
2014-May-04 09:13N 35°26' W 006°51'6912.1
2014-May-04 03:33N 35°58' W 005°37'1111.3
2014-May-04 02:34N 36°01' W 005°23'1010.2
2014-May-04 01:33N 36°03' W 005°11'  
2014-May-01 02:11N 36°52' E 012°53'812.5
2014-May-01 01:33N 36°51' E 013°03'1712.4
2014-May-01 00:13N 36°46' E 013°23'812.2
2014-Apr-30 23:32N 36°43' E 013°33'1512.6
2014-Apr-30 22:19N 36°39' E 013°51'1013.0
2014-Apr-30 21:33N 36°35' E 014°03'1313.0
2014-Apr-30 20:33N 36°32' E 014°18'1312.5
2014-Apr-30 19:32N 36°28' E 014°33'1312.3
2014-Apr-30 18:30N 36°28' E 014°49'43511.7
2014-Apr-29 05:23N 36°41' E 023°51'1112.2
2014-Apr-29 04:31N 36°50' E 023°59'1212.2
2014-Apr-29 03:30N 37°01' E 024°04'2512.4
2014-Apr-29 01:28N 37°25' E 024°15'1112.5
2014-Apr-29 00:33N 37°34' E 024°24'1412.5
2014-Apr-28 23:25N 37°47' E 024°32'12712.3
2014-Apr-28 13:07N 39°42' E 025°41'712.1
2014-Apr-28 12:31N 39°48' E 025°45'5810.8
2014-Apr-28 07:08N 40°25' E 026°43'910.8
2014-Apr-28 06:20N 40°29' E 026°53'131 6.0
2014-Apr-27 08:33N 41°28' E 029°28'  

Dump ship's entire track history